sensor_id;sensor_type;location;lat;lon;timestamp;pressure;altitude;pressure_sealevel;temperature;humidity
7668;BME280;3876;42.204;24.686;2023-04-24T00:01:46;99315.66;;;11.69;97.89
7668;BME280;3876;42.204;24.686;2023-04-24T00:04:14;99316.47;;;11.70;97.99
7668;BME280;3876;42.204;24.686;2023-04-24T00:06:42;99321.56;;;11.73;97.98
7668;BME280;3876;42.204;24.686;2023-04-24T00:09:09;99319.94;;;11.69;98.36
7668;BME280;3876;42.204;24.686;2023-04-24T00:11:36;99316.47;;;11.70;97.98
7668;BME280;3876;42.204;24.686;2023-04-24T00:14:03;99309.78;;;11.66;98.05
7668;BME280;3876;42.204;24.686;2023-04-24T00:16:30;99312.38;;;11.64;98.54
7668;BME280;3876;42.204;24.686;2023-04-24T00:18:57;99307.63;;;11.53;98.82
7668;BME280;3876;42.204;24.686;2023-04-24T00:21:25;99309.31;;;11.54;98.86
7668;BME280;3876;42.204;24.686;2023-04-24T00:23:52;99304.19;;;11.54;98.84
7668;BME280;3876;42.204;24.686;2023-04-24T00:26:19;99305.06;;;11.53;98.67
7668;BME280;3876;42.204;24.686;2023-04-24T00:28:46;99296.69;;;11.48;99.78
7668;BME280;3876;42.204;24.686;2023-04-24T00:31:13;99297.47;;;11.50;99.79
7668;BME280;3876;42.204;24.686;2023-04-24T00:33:39;99273.13;;;11.37;99.28
7668;BME280;3876;42.204;24.686;2023-04-24T00:36:06;99299.28;;;11.48;99.24
7668;BME280;3876;42.204;24.686;2023-04-24T00:38:34;99300.25;;;11.44;99.16
7668;BME280;3876;42.204;24.686;2023-04-24T00:41:01;99296.06;;;11.42;99.05
7668;BME280;3876;42.204;24.686;2023-04-24T00:43:28;99297.81;;;11.41;99.27
7668;BME280;3876;42.204;24.686;2023-04-24T00:45:55;99293.66;;;11.37;99.79
7668;BME280;3876;42.204;24.686;2023-04-24T00:48:23;99299.09;;;11.30;100.00
7668;BME280;3876;42.204;24.686;2023-04-24T00:50:50;99305.44;;;11.18;100.00
7668;BME280;3876;42.204;24.686;2023-04-24T00:53:17;99300.38;;;11.17;100.00
7668;BME280;3876;42.204;24.686;2023-04-24T00:55:45;99295.25;;;11.17;100.00
7668;BME280;3876;42.204;24.686;2023-04-24T00:58:12;99311.81;;;11.08;100.00
7668;BME280;3876;42.204;24.686;2023-04-24T01:00:39;99305.00;;;11.07;100.00
7668;BME280;3876;42.204;24.686;2023-04-24T01:03:06;99304.88;;;11.10;100.00
7668;BME280;3876;42.204;24.686;2023-04-24T01:05:33;99291.47;;;11.02;100.00
7668;BME280;3876;42.204;24.686;2023-04-24T01:08:01;99303.72;;;10.94;100.00
7668;BME280;3876;42.204;24.686;2023-04-24T01:10:29;99292.75;;;10.89;100.00
7668;BME280;3876;42.204;24.686;2023-04-24T01:12:58;99286.66;;;10.93;100.00
7668;BME280;3876;42.204;24.686;2023-04-24T01:15:25;99295.06;;;10.98;100.00
7668;BME280;3876;42.204;24.686;2023-04-24T01:17:52;99291.56;;;10.99;100.00
7668;BME280;3876;42.204;24.686;2023-04-24T01:20:19;99293.25;;;11.00;100.00
7668;BME280;3876;42.204;24.686;2023-04-24T01:22:47;99288.13;;;11.00;100.00
7668;BME280;3876;42.204;24.686;2023-04-24T01:25:14;99285.81;;;10.92;100.00
7668;BME280;3876;42.204;24.686;2023-04-24T01:27:41;99298.69;;;10.91;100.00
7668;BME280;3876;42.204;24.686;2023-04-24T01:30:09;99291.88;;;10.90;100.00
7668;BME280;3876;42.204;24.686;2023-04-24T01:32:37;99283.34;;;10.89;100.00
7668;BME280;3876;42.204;24.686;2023-04-24T01:35:05;99297.72;;;10.95;100.00
7668;BME280;3876;42.204;24.686;2023-04-24T01:37:32;99285.28;;;10.83;100.00
7668;BME280;3876;42.204;24.686;2023-04-24T01:40:00;99296.25;;;10.88;99.40
7668;BME280;3876;42.204;24.686;2023-04-24T01:42:29;99290.31;;;10.86;99.83
7668;BME280;3876;42.204;24.686;2023-04-24T01:44:56;99283.91;;;10.73;99.58
7668;BME280;3876;42.204;24.686;2023-04-24T01:47:23;99290.81;;;10.71;99.90
7668;BME280;3876;42.204;24.686;2023-04-24T01:49:50;99291.66;;;10.71;99.95
7668;BME280;3876;42.204;24.686;2023-04-24T01:52:17;99292.00;;;10.61;100.00
7668;BME280;3876;42.204;24.686;2023-04-24T01:54:45;99292.09;;;10.58;100.00
7668;BME280;3876;42.204;24.686;2023-04-24T01:57:13;99287.03;;;10.56;100.00
7668;BME280;3876;42.204;24.686;2023-04-24T01:59:40;99284.50;;;10.54;99.70
7668;BME280;3876;42.204;24.686;2023-04-24T02:02:07;99292.16;;;10.56;99.14
7668;BME280;3876;42.204;24.686;2023-04-24T02:04:34;99291.31;;;10.56;98.39
7668;BME280;3876;42.204;24.686;2023-04-24T02:07:01;99282.72;;;10.57;97.49
7668;BME280;3876;42.204;24.686;2023-04-24T02:09:27;99284.59;;;10.51;97.64
7668;BME280;3876;42.204;24.686;2023-04-24T02:11:54;99281.94;;;10.54;97.08
7668;BME280;3876;42.204;24.686;2023-04-24T02:14:23;99276.91;;;10.51;96.42
7668;BME280;3876;42.204;24.686;2023-04-24T02:16:49;99275.19;;;10.52;95.98
7668;BME280;3876;42.204;24.686;2023-04-24T02:19:16;99267.63;;;10.47;95.98
7668;BME280;3876;42.204;24.686;2023-04-24T02:21:43;99266.34;;;10.34;95.62
7668;BME280;3876;42.204;24.686;2023-04-24T02:24:10;99270.78;;;10.29;96.13
7668;BME280;3876;42.204;24.686;2023-04-24T02:26:36;99266.53;;;10.28;96.82
7668;BME280;3876;42.204;24.686;2023-04-24T02:29:03;99258.19;;;10.23;97.16
7668;BME280;3876;42.204;24.686;2023-04-24T02:31:32;99265.78;;;10.25;97.09
7668;BME280;3876;42.204;24.686;2023-04-24T02:33:59;99271.09;;;10.20;97.65
7668;BME280;3876;42.204;24.686;2023-04-24T02:36:26;99263.50;;;10.17;98.23
7668;BME280;3876;42.204;24.686;2023-04-24T02:38:52;99266.97;;;10.15;98.63
7668;BME280;3876;42.204;24.686;2023-04-24T02:41:19;99261.97;;;10.10;98.63
7668;BME280;3876;42.204;24.686;2023-04-24T02:43:46;99257.72;;;10.09;99.33
7668;BME280;3876;42.204;24.686;2023-04-24T02:46:13;99267.97;;;10.09;99.52
7668;BME280;3876;42.204;24.686;2023-04-24T02:48:41;99268.03;;;10.08;99.35
7668;BME280;3876;42.204;24.686;2023-04-24T02:51:08;99262.94;;;10.06;99.59
7668;BME280;3876;42.204;24.686;2023-04-24T02:53:35;99260.38;;;10.06;99.42
7668;BME280;3876;42.204;24.686;2023-04-24T02:56:02;99266.34;;;10.07;98.86
7668;BME280;3876;42.204;24.686;2023-04-24T02:58:29;99267.19;;;10.07;99.32
7668;BME280;3876;42.204;24.686;2023-04-24T03:00:56;99267.19;;;10.07;98.97
7668;BME280;3876;42.204;24.686;2023-04-24T03:03:22;99263.78;;;10.07;99.11
7668;BME280;3876;42.204;24.686;2023-04-24T03:05:51;99242.09;;;9.89;98.83
7668;BME280;3876;42.204;24.686;2023-04-24T03:08:18;99252.09;;;9.98;98.98
7668;BME280;3876;42.204;24.686;2023-04-24T03:10:45;99243.88;;;9.87;98.93
7668;BME280;3876;42.204;24.686;2023-04-24T03:13:12;99248.16;;;9.86;99.33
7668;BME280;3876;42.204;24.686;2023-04-24T03:15:38;99261.63;;;9.93;99.08
7668;BME280;3876;42.204;24.686;2023-04-24T03:18:05;99268.44;;;9.94;99.14
7668;BME280;3876;42.204;24.686;2023-04-24T03:20:32;99271.94;;;9.91;98.98
7668;BME280;3876;42.204;24.686;2023-04-24T03:23:00;99255.16;;;9.81;99.22
7668;BME280;3876;42.204;24.686;2023-04-24T03:25:27;99278.03;;;9.86;99.25
7668;BME280;3876;42.204;24.686;2023-04-24T03:27:54;99279.72;;;9.87;99.21
7668;BME280;3876;42.204;24.686;2023-04-24T03:30:20;99281.44;;;9.86;99.43
7668;BME280;3876;42.204;24.686;2023-04-24T03:32:47;99286.56;;;9.86;99.21
7668;BME280;3876;42.204;24.686;2023-04-24T03:35:14;99283.06;;;9.89;98.45
7668;BME280;3876;42.204;24.686;2023-04-24T03:37:41;99283.16;;;9.86;98.06
7668;BME280;3876;42.204;24.686;2023-04-24T03:40:10;99279.72;;;9.87;97.72
7668;BME280;3876;42.204;24.686;2023-04-24T03:42:36;99269.59;;;9.84;97.86
7668;BME280;3876;42.204;24.686;2023-04-24T03:45:04;99277.34;;;9.81;97.82
7668;BME280;3876;42.204;24.686;2023-04-24T03:47:31;99276.72;;;9.73;98.24
7668;BME280;3876;42.204;24.686;2023-04-24T03:49:57;99288.72;;;9.71;99.60
7668;BME280;3876;42.204;24.686;2023-04-24T03:52:24;99288.72;;;9.71;99.96
7668;BME280;3876;42.204;24.686;2023-04-24T03:54:51;99292.97;;;9.72;100.00
7668;BME280;3876;42.204;24.686;2023-04-24T03:57:19;99292.06;;;9.73;100.00
7668;BME280;3876;42.204;24.686;2023-04-24T03:59:46;99290.69;;;9.63;100.00
7668;BME280;3876;42.204;24.686;2023-04-24T04:02:13;99285.72;;;9.57;100.00
7668;BME280;3876;42.204;24.686;2023-04-24T04:04:39;99296.03;;;9.54;100.00
7668;BME280;3876;42.204;24.686;2023-04-24T04:07:06;99300.19;;;9.58;100.00
7668;BME280;3876;42.204;24.686;2023-04-24T04:09:33;99288.41;;;9.52;100.00
7668;BME280;3876;42.204;24.686;2023-04-24T04:12:00;99304.16;;;9.69;100.00
7668;BME280;3876;42.204;24.686;2023-04-24T04:14:28;99302.16;;;9.79;100.00
7668;BME280;3876;42.204;24.686;2023-04-24T04:16:55;99283.63;;;9.71;100.00
7668;BME280;3876;42.204;24.686;2023-04-24T04:19:22;99298.78;;;9.77;100.00
7668;BME280;3876;42.204;24.686;2023-04-24T04:21:48;99309.78;;;9.80;100.00
7668;BME280;3876;42.204;24.686;2023-04-24T04:24:18;99288.28;;;9.86;100.00
7668;BME280;3876;42.204;24.686;2023-04-24T04:26:47;99306.53;;;10.05;100.00
7668;BME280;3876;42.204;24.686;2023-04-24T04:29:16;99307.03;;;10.17;100.00
7668;BME280;3876;42.204;24.686;2023-04-24T04:31:45;99303.91;;;10.35;100.00
7668;BME280;3876;42.204;24.686;2023-04-24T04:34:11;99305.41;;;10.42;100.00
7668;BME280;3876;42.204;24.686;2023-04-24T04:36:39;99307.44;;;10.59;99.68
7668;BME280;3876;42.204;24.686;2023-04-24T04:39:06;99298.84;;;10.60;99.51
7668;BME280;3876;42.204;24.686;2023-04-24T04:41:33;99299.09;;;10.79;100.00
7668;BME280;3876;42.204;24.686;2023-04-24T04:44:01;99310.34;;;11.01;99.81
7668;BME280;3876;42.204;24.686;2023-04-24T04:46:30;99315.81;;;11.15;99.63
7668;BME280;3876;42.204;24.686;2023-04-24T04:48:59;99317.78;;;11.33;98.88
7668;BME280;3876;42.204;24.686;2023-04-24T04:51:26;99308.59;;;11.51;98.15
7668;BME280;3876;42.204;24.686;2023-04-24T04:53:53;99293.41;;;11.68;96.59
7668;BME280;3876;42.204;24.686;2023-04-24T04:56:20;99297.28;;;11.80;95.50
7668;BME280;3876;42.204;24.686;2023-04-24T04:58:47;99297.88;;;11.88;96.12
7668;BME280;3876;42.204;24.686;2023-04-24T05:01:14;99276.81;;;11.78;95.30
7668;BME280;3876;42.204;24.686;2023-04-24T05:03:41;99303.78;;;11.90;96.03
7668;BME280;3876;42.204;24.686;2023-04-24T05:06:09;99312.41;;;11.89;96.03
7668;BME280;3876;42.204;24.686;2023-04-24T05:08:36;99292.16;;;11.80;97.20
7668;BME280;3876;42.204;24.686;2023-04-24T05:11:03;99303.38;;;11.77;99.26
7668;BME280;3876;42.204;24.686;2023-04-24T05:13:31;99276.28;;;11.69;99.79
7668;BME280;3876;42.204;24.686;2023-04-24T05:15:58;99269.22;;;11.50;100.00
7668;BME280;3876;42.204;24.686;2023-04-24T05:18:24;99282.31;;;11.68;100.00
7668;BME280;3876;42.204;24.686;2023-04-24T05:20:51;99275.03;;;11.80;100.00
7668;BME280;3876;42.204;24.686;2023-04-24T05:23:19;99274.66;;;11.89;100.00
7668;BME280;3876;42.204;24.686;2023-04-24T05:25:46;99272.16;;;12.11;100.00
7668;BME280;3876;42.204;24.686;2023-04-24T05:28:13;99271.19;;;12.35;100.00
7668;BME280;3876;42.204;24.686;2023-04-24T05:30:40;99262.84;;;12.50;100.00
7668;BME280;3876;42.204;24.686;2023-04-24T05:33:07;99261.97;;;12.51;99.20
7668;BME280;3876;42.204;24.686;2023-04-24T05:35:36;99260.78;;;12.60;98.54
7668;BME280;3876;42.204;24.686;2023-04-24T05:38:03;99266.50;;;12.87;97.66
7668;BME280;3876;42.204;24.686;2023-04-24T05:40:31;99262.03;;;13.12;96.55
7668;BME280;3876;42.204;24.686;2023-04-24T05:42:58;99267.16;;;13.32;94.57
7668;BME280;3876;42.204;24.686;2023-04-24T05:45:25;99261.78;;;13.57;94.14
7668;BME280;3876;42.204;24.686;2023-04-24T05:47:52;99267.09;;;13.73;93.17
7668;BME280;3876;42.204;24.686;2023-04-24T05:50:19;99269.03;;;13.86;93.14
7668;BME280;3876;42.204;24.686;2023-04-24T05:52:46;99268.19;;;14.04;92.29
7668;BME280;3876;42.204;24.686;2023-04-24T05:55:12;99282.25;;;14.16;89.63
7668;BME280;3876;42.204;24.686;2023-04-24T05:57:44;99273.47;;;14.20;90.36
7668;BME280;3876;42.204;24.686;2023-04-24T06:00:12;99270.31;;;14.32;89.84
7668;BME280;3876;42.204;24.686;2023-04-24T06:02:39;99274.44;;;14.36;89.73
7668;BME280;3876;42.204;24.686;2023-04-24T06:05:06;99273.63;;;14.36;88.20
7668;BME280;3876;42.204;24.686;2023-04-24T06:07:33;99277.53;;;14.61;88.23
7668;BME280;3876;42.204;24.686;2023-04-24T06:10:00;99246.78;;;14.40;87.69
7668;BME280;3876;42.204;24.686;2023-04-24T06:12:27;99286.78;;;14.65;88.05
7668;BME280;3876;42.204;24.686;2023-04-24T06:14:55;99283.75;;;14.75;88.45
7668;BME280;3876;42.204;24.686;2023-04-24T06:17:22;99278.06;;;14.85;86.11
7668;BME280;3876;42.204;24.686;2023-04-24T06:19:48;99282.78;;;14.94;86.12
7668;BME280;3876;42.204;24.686;2023-04-24T06:22:15;99276.78;;;15.11;85.38
7668;BME280;3876;42.204;24.686;2023-04-24T06:24:42;99280.69;;;15.52;86.20
7668;BME280;3876;42.204;24.686;2023-04-24T06:27:08;99278.72;;;15.73;83.69
7668;BME280;3876;42.204;24.686;2023-04-24T06:29:36;99274.13;;;15.62;82.14
7668;BME280;3876;42.204;24.686;2023-04-24T06:32:04;99281.56;;;15.84;82.40
7668;BME280;3876;42.204;24.686;2023-04-24T06:34:31;99273.81;;;15.84;81.02
7668;BME280;3876;42.204;24.686;2023-04-24T06:36:59;99275.88;;;15.77;82.17
7668;BME280;3876;42.204;24.686;2023-04-24T06:39:26;99278.41;;;15.95;81.82
7668;BME280;3876;42.204;24.686;2023-04-24T06:41:53;99280.72;;;15.84;80.65
7668;BME280;3876;42.204;24.686;2023-04-24T06:44:19;99284.59;;;16.23;82.14
7668;BME280;3876;42.204;24.686;2023-04-24T06:46:46;99285.22;;;16.58;80.99
7668;BME280;3876;42.204;24.686;2023-04-24T06:49:14;99298.94;;;16.60;79.83
7668;BME280;3876;42.204;24.686;2023-04-24T06:51:41;99302.28;;;16.62;77.65
7668;BME280;3876;42.204;24.686;2023-04-24T06:54:08;99297.66;;;16.67;77.39
7668;BME280;3876;42.204;24.686;2023-04-24T06:56:35;99299.25;;;16.23;77.20
7668;BME280;3876;42.204;24.686;2023-04-24T06:59:04;99297.56;;;16.53;77.86
7668;BME280;3876;42.204;24.686;2023-04-24T07:01:31;99298.91;;;16.45;76.29
7668;BME280;3876;42.204;24.686;2023-04-24T07:03:58;99292.75;;;16.47;78.03
7668;BME280;3876;42.204;24.686;2023-04-24T07:06:26;99297.75;;;16.66;77.53
7668;BME280;3876;42.204;24.686;2023-04-24T07:08:53;99294.56;;;16.76;76.04
7668;BME280;3876;42.204;24.686;2023-04-24T07:11:21;99306.03;;;16.87;75.91
7668;BME280;3876;42.204;24.686;2023-04-24T07:13:48;99299.59;;;16.94;74.78
7668;BME280;3876;42.204;24.686;2023-04-24T07:16:15;99299.81;;;17.05;74.59
7668;BME280;3876;42.204;24.686;2023-04-24T07:18:42;99294.13;;;17.28;74.06
7668;BME280;3876;42.204;24.686;2023-04-24T07:21:09;99299.09;;;17.61;74.05
7668;BME280;3876;42.204;24.686;2023-04-24T07:23:37;99289.47;;;17.63;72.73
7668;BME280;3876;42.204;24.686;2023-04-24T07:26:06;99294.00;;;17.73;71.16
7668;BME280;3876;42.204;24.686;2023-04-24T07:28:33;99298.25;;;17.60;72.63
7668;BME280;3876;42.204;24.686;2023-04-24T07:31:00;99282.22;;;17.82;72.82
7668;BME280;3876;42.204;24.686;2023-04-24T07:33:27;99294.53;;;17.93;71.59
7668;BME280;3876;42.204;24.686;2023-04-24T07:35:53;99288.56;;;18.05;70.45
7668;BME280;3876;42.204;24.686;2023-04-24T07:38:20;99291.47;;;17.58;70.79
7668;BME280;3876;42.204;24.686;2023-04-24T07:40:49;99288.38;;;17.51;72.11
7668;BME280;3876;42.204;24.686;2023-04-24T07:43:15;99283.44;;;17.04;72.39
7668;BME280;3876;42.204;24.686;2023-04-24T07:45:42;99286.44;;;16.83;73.51
7668;BME280;3876;42.204;24.686;2023-04-24T07:48:09;99283.03;;;16.82;74.68
7668;BME280;3876;42.204;24.686;2023-04-24T07:50:36;99292.09;;;16.89;75.97
7668;BME280;3876;42.204;24.686;2023-04-24T07:53:02;99282.91;;;17.13;75.21
7668;BME280;3876;42.204;24.686;2023-04-24T07:55:29;99281.53;;;17.36;73.72
7668;BME280;3876;42.204;24.686;2023-04-24T07:57:58;99281.03;;;17.59;72.93
7668;BME280;3876;42.204;24.686;2023-04-24T08:00:24;99276.25;;;17.52;72.73
7668;BME280;3876;42.204;24.686;2023-04-24T08:02:51;99281.94;;;17.58;73.35
7668;BME280;3876;42.204;24.686;2023-04-24T08:05:18;99273.06;;;17.62;72.46
7668;BME280;3876;42.204;24.686;2023-04-24T08:07:45;99277.22;;;17.79;73.50
7668;BME280;3876;42.204;24.686;2023-04-24T08:10:14;99271.13;;;17.80;74.74
7668;BME280;3876;42.204;24.686;2023-04-24T08:12:41;99277.34;;;17.63;72.83
7668;BME280;3876;42.204;24.686;2023-04-24T08:15:10;99275.94;;;17.86;73.90
7668;BME280;3876;42.204;24.686;2023-04-24T08:17:37;99272.81;;;18.08;71.49
7668;BME280;3876;42.204;24.686;2023-04-24T08:20:04;99258.16;;;18.21;71.97
7668;BME280;3876;42.204;24.686;2023-04-24T08:22:35;99268.13;;;18.27;71.62
7668;BME280;3876;42.204;24.686;2023-04-24T08:25:02;99261.41;;;18.10;71.81
7668;BME280;3876;42.204;24.686;2023-04-24T08:27:29;99254.44;;;18.25;71.68
7668;BME280;3876;42.204;24.686;2023-04-24T08:29:57;99252.84;;;17.96;71.31
7668;BME280;3876;42.204;24.686;2023-04-24T08:32:25;99256.03;;;18.13;73.45
7668;BME280;3876;42.204;24.686;2023-04-24T08:34:53;99252.06;;;18.08;70.71
7668;BME280;3876;42.204;24.686;2023-04-24T08:37:21;99247.59;;;18.10;72.10
7668;BME280;3876;42.204;24.686;2023-04-24T08:39:49;99243.63;;;18.18;72.96
7668;BME280;3876;42.204;24.686;2023-04-24T08:42:16;99244.59;;;18.30;72.07
7668;BME280;3876;42.204;24.686;2023-04-24T08:44:43;99234.34;;;18.41;71.15
7668;BME280;3876;42.204;24.686;2023-04-24T08:47:10;99239.88;;;18.49;69.47
7668;BME280;3876;42.204;24.686;2023-04-24T08:49:39;99232.66;;;18.54;69.52
7668;BME280;3876;42.204;24.686;2023-04-24T08:52:06;99234.66;;;18.76;69.10
7668;BME280;3876;42.204;24.686;2023-04-24T08:54:33;99235.50;;;18.76;68.90
7668;BME280;3876;42.204;24.686;2023-04-24T08:57:02;99222.00;;;18.84;71.49
7668;BME280;3876;42.204;24.686;2023-04-24T08:59:29;99214.94;;;18.86;71.36
7668;BME280;3876;42.204;24.686;2023-04-24T09:01:56;99228.25;;;19.07;69.96
7668;BME280;3876;42.204;24.686;2023-04-24T09:04:24;99225.56;;;19.21;69.92
7668;BME280;3876;42.204;24.686;2023-04-24T09:06:56;99228.66;;;19.26;66.75
7668;BME280;3876;42.204;24.686;2023-04-24T09:09:23;99225.56;;;19.46;69.19
7668;BME280;3876;42.204;24.686;2023-04-24T09:11:50;99222.63;;;19.63;67.89
7668;BME280;3876;42.204;24.686;2023-04-24T09:14:19;99213.16;;;19.62;70.13
7668;BME280;3876;42.204;24.686;2023-04-24T09:16:46;99219.91;;;19.39;69.39
7668;BME280;3876;42.204;24.686;2023-04-24T09:19:13;99218.06;;;19.54;69.11
7668;BME280;3876;42.204;24.686;2023-04-24T09:21:39;99214.50;;;19.55;69.24
7668;BME280;3876;42.204;24.686;2023-04-24T09:24:16;99212.47;;;19.48;68.28
7668;BME280;3876;42.204;24.686;2023-04-24T09:26:44;99217.13;;;19.55;68.55
7668;BME280;3876;42.204;24.686;2023-04-24T09:29:14;99203.31;;;19.42;66.62
7668;BME280;3876;42.204;24.686;2023-04-24T09:31:42;99202.72;;;19.75;66.64
7668;BME280;3876;42.204;24.686;2023-04-24T09:34:11;99195.47;;;19.67;66.58
7668;BME280;3876;42.204;24.686;2023-04-24T09:36:39;99202.72;;;19.75;67.72
7668;BME280;3876;42.204;24.686;2023-04-24T09:39:09;99203.97;;;20.06;69.18
7668;BME280;3876;42.204;24.686;2023-04-24T09:41:44;99178.78;;;20.30;66.30
7668;BME280;3876;42.204;24.686;2023-04-24T09:44:12;99195.69;;;20.48;65.77
7668;BME280;3876;42.204;24.686;2023-04-24T09:46:41;99191.88;;;20.52;65.82
7668;BME280;3876;42.204;24.686;2023-04-24T09:49:09;99176.84;;;20.21;64.79
7668;BME280;3876;42.204;24.686;2023-04-24T09:51:37;99188.66;;;20.37;65.18
7668;BME280;3876;42.204;24.686;2023-04-24T09:54:14;99172.94;;;20.50;64.70
7668;BME280;3876;42.204;24.686;2023-04-24T09:56:46;99188.91;;;20.22;63.54
7668;BME280;3876;42.204;24.686;2023-04-24T09:59:14;99186.25;;;20.11;64.53
7668;BME280;3876;42.204;24.686;2023-04-24T10:01:41;99176.44;;;19.90;64.46
7668;BME280;3876;42.204;24.686;2023-04-24T10:04:17;99171.31;;;20.02;65.80
7668;BME280;3876;42.204;24.686;2023-04-24T10:06:45;99177.84;;;20.31;64.96
7668;BME280;3876;42.204;24.686;2023-04-24T10:09:13;99154.81;;;20.49;63.17
7668;BME280;3876;42.204;24.686;2023-04-24T10:11:42;99123.94;;;20.44;63.16
7668;BME280;3876;42.204;24.686;2023-04-24T10:14:12;99147.19;;;20.69;60.93
7668;BME280;3876;42.204;24.686;2023-04-24T10:16:39;99152.41;;;20.69;62.93
7668;BME280;3876;42.204;24.686;2023-04-24T10:19:07;99148.25;;;20.67;64.44
7668;BME280;3876;42.204;24.686;2023-04-24T10:21:34;99132.28;;;20.82;64.76
7668;BME280;3876;42.204;24.686;2023-04-24T10:24:03;99130.63;;;20.81;62.51
7668;BME280;3876;42.204;24.686;2023-04-24T10:26:34;99129.19;;;20.66;63.04
7668;BME280;3876;42.204;24.686;2023-04-24T10:29:01;99133.56;;;20.55;60.99
7668;BME280;3876;42.204;24.686;2023-04-24T10:31:31;99138.25;;;20.38;62.61
7668;BME280;3876;42.204;24.686;2023-04-24T10:33:59;99136.03;;;20.56;61.26
7668;BME280;3876;42.204;24.686;2023-04-24T10:36:28;99133.47;;;20.67;61.41
7668;BME280;3876;42.204;24.686;2023-04-24T10:38:59;99125.03;;;20.75;63.16
7668;BME280;3876;42.204;24.686;2023-04-24T10:41:26;99123.13;;;20.66;60.25
7668;BME280;3876;42.204;24.686;2023-04-24T10:44:08;99118.22;;;20.39;62.13
7668;BME280;3876;42.204;24.686;2023-04-24T10:46:35;99118.81;;;20.42;61.12
7668;BME280;3876;42.204;24.686;2023-04-24T10:49:04;99103.81;;;20.46;61.23
7668;BME280;3876;42.204;24.686;2023-04-24T10:51:46;99106.22;;;20.60;63.65
7668;BME280;3876;42.204;24.686;2023-04-24T10:54:23;99105.53;;;20.80;64.78
7668;BME280;3876;42.204;24.686;2023-04-24T10:56:51;99102.91;;;21.03;62.91
7668;BME280;3876;42.204;24.686;2023-04-24T10:59:25;99104.13;;;21.10;62.54
7668;BME280;3876;42.204;24.686;2023-04-24T11:01:53;99098.19;;;21.19;60.70
7668;BME280;3876;42.204;24.686;2023-04-24T11:04:29;99099.84;;;21.20;61.45
7668;BME280;3876;42.204;24.686;2023-04-24T11:06:56;99097.97;;;21.22;60.90
7668;BME280;3876;42.204;24.686;2023-04-24T11:09:26;99087.75;;;20.97;61.30
7668;BME280;3876;42.204;24.686;2023-04-24T11:12:03;99086.09;;;20.95;63.03
7668;BME280;3876;42.204;24.686;2023-04-24T11:14:59;99079.91;;;21.08;63.62
7668;BME280;3876;42.204;24.686;2023-04-24T11:17:30;99077.34;;;21.19;61.38
7668;BME280;3876;42.204;24.686;2023-04-24T11:20:01;99072.63;;;21.13;61.44
7668;BME280;3876;42.204;24.686;2023-04-24T11:22:31;99071.91;;;21.22;60.75
7668;BME280;3876;42.204;24.686;2023-04-24T11:25:00;99070.19;;;21.43;62.88
7668;BME280;3876;42.204;24.686;2023-04-24T11:27:29;99067.56;;;21.43;62.33
7668;BME280;3876;42.204;24.686;2023-04-24T11:30:02;99058.56;;;21.36;62.20
7668;BME280;3876;42.204;24.686;2023-04-24T11:32:33;99056.22;;;21.33;60.66
7668;BME280;3876;42.204;24.686;2023-04-24T11:35:02;99060.97;;;21.28;61.32
7668;BME280;3876;42.204;24.686;2023-04-24T11:37:34;99049.06;;;21.46;61.50
7668;BME280;3876;42.204;24.686;2023-04-24T11:40:01;99065.03;;;21.64;63.04
7668;BME280;3876;42.204;24.686;2023-04-24T11:42:28;99040.28;;;21.47;60.09
7668;BME280;3876;42.204;24.686;2023-04-24T11:44:55;99046.44;;;21.46;60.64
7668;BME280;3876;42.204;24.686;2023-04-24T11:47:29;99041.00;;;21.49;62.27
7668;BME280;3876;42.204;24.686;2023-04-24T11:49:56;99028.19;;;21.57;60.77
7668;BME280;3876;42.204;24.686;2023-04-24T11:52:23;99014.13;;;21.69;60.61
7668;BME280;3876;42.204;24.686;2023-04-24T11:54:50;99020.00;;;21.82;59.59
7668;BME280;3876;42.204;24.686;2023-04-24T11:57:19;99016.22;;;21.75;60.74
7668;BME280;3876;42.204;24.686;2023-04-24T11:59:46;99012.13;;;21.62;60.99
7668;BME280;3876;42.204;24.686;2023-04-24T12:02:20;99001.78;;;21.71;62.29
7668;BME280;3876;42.204;24.686;2023-04-24T12:04:49;98982.94;;;21.88;61.77
7668;BME280;3876;42.204;24.686;2023-04-24T12:07:16;98990.25;;;22.06;60.37
7668;BME280;3876;42.204;24.686;2023-04-24T12:09:44;99001.19;;;22.00;59.96
7668;BME280;3876;42.204;24.686;2023-04-24T12:12:12;98992.41;;;22.01;60.90
7668;BME280;3876;42.204;24.686;2023-04-24T12:14:44;98973.75;;;22.05;63.22
7668;BME280;3876;42.204;24.686;2023-04-24T12:17:11;98970.50;;;22.13;61.40
7668;BME280;3876;42.204;24.686;2023-04-24T12:19:38;98965.53;;;22.10;62.24
7668;BME280;3876;42.204;24.686;2023-04-24T12:22:06;98963.88;;;22.09;61.59
7668;BME280;3876;42.204;24.686;2023-04-24T12:24:33;98954.75;;;22.24;62.83
7668;BME280;3876;42.204;24.686;2023-04-24T12:27:00;98953.69;;;22.06;61.13
7668;BME280;3876;42.204;24.686;2023-04-24T12:29:27;98940.50;;;22.07;62.93
7668;BME280;3876;42.204;24.686;2023-04-24T12:31:54;98945.50;;;22.20;64.22
7668;BME280;3876;42.204;24.686;2023-04-24T12:34:23;98937.88;;;22.28;62.17
7668;BME280;3876;42.204;24.686;2023-04-24T12:36:50;98938.72;;;22.38;60.90
7668;BME280;3876;42.204;24.686;2023-04-24T12:39:19;98930.19;;;22.36;60.89
7668;BME280;3876;42.204;24.686;2023-04-24T12:41:55;98916.97;;;22.28;61.13
7668;BME280;3876;42.204;24.686;2023-04-24T12:44:30;98926.28;;;22.21;61.33
7668;BME280;3876;42.204;24.686;2023-04-24T12:46:59;98911.44;;;22.21;62.24
7668;BME280;3876;42.204;24.686;2023-04-24T12:49:26;98911.75;;;22.28;62.45
7668;BME280;3876;42.204;24.686;2023-04-24T12:51:53;98902.69;;;22.32;62.15
7668;BME280;3876;42.204;24.686;2023-04-24T12:54:22;98900.25;;;22.40;60.80
7668;BME280;3876;42.204;24.686;2023-04-24T12:56:49;98901.72;;;22.33;60.42
7668;BME280;3876;42.204;24.686;2023-04-24T12:59:15;98900.78;;;22.34;61.29
7668;BME280;3876;42.204;24.686;2023-04-24T13:01:42;98889.63;;;22.22;63.49
7668;BME280;3876;42.204;24.686;2023-04-24T13:04:09;98891.41;;;22.31;62.76
7668;BME280;3876;42.204;24.686;2023-04-24T13:06:36;98888.00;;;22.40;61.05
7668;BME280;3876;42.204;24.686;2023-04-24T13:09:02;98887.00;;;22.22;61.52
7668;BME280;3876;42.204;24.686;2023-04-24T13:11:31;98878.47;;;22.30;61.65
7668;BME280;3876;42.204;24.686;2023-04-24T13:13:57;98878.63;;;22.28;61.66